Time;durP1;ratioP1;P1;durP2;ratioP2;P2;SDS_P1;SDS_P2;PMS_P1;PMS_P2;Temp;Humidity;BMP_temperature;BMP_pressure;BME280_temperature;BME280_humidity;BME280_pressure;Samples;Min_cycle;Max_cycle;Signal;HPM_P1;HPM_P2
2021/10/29 00:01:28;;;;;;;;;;;12.10;99.90;;;;;;5113775;28;19932;-83
2021/10/29 00:03:54;;;;;;;;;;;12.00;99.90;;;;;;5118293;27;19995;-84
2021/10/29 00:06:21;;;;;;;;;;;12.00;99.90;;;;;;5122408;27;19923;-83
2021/10/29 00:08:48;;;;;;;;;;;12.00;99.90;;;;;;5127363;27;20014;-84
2021/10/29 00:11:14;;;;;;;;;;;12.00;99.90;;;;;;5122640;27;19930;-84
2021/10/29 00:13:41;;;;;;;;;;;11.90;99.90;;;;;;5123258;27;19923;-84
2021/10/29 00:16:09;;;;;;;;;;;11.90;99.90;;;;;;5128593;27;19923;-84
2021/10/29 00:18:36;;;;;;;;;;;11.90;99.90;;;;;;5120019;27;19924;-83
2021/10/29 00:21:03;;;;;;;;;;;11.90;99.90;;;;;;5115501;27;20018;-84
2021/10/29 00:23:31;;;;;;;;;;;11.80;99.90;;;;;;5123635;27;19923;-84
2021/10/29 00:25:57;;;;;;;;;;;11.80;99.90;;;;;;5126764;27;19931;-84
2021/10/29 00:28:24;;;;;;;;;;;11.80;99.90;;;;;;5130427;27;19929;-84
2021/10/29 00:30:51;;;;;;;;;;;11.70;99.90;;;;;;5123279;27;19923;-84
2021/10/29 00:33:19;;;;;;;;;;;11.70;99.90;;;;;;5121180;27;20124;-85
2021/10/29 00:35:46;;;;;;;;;;;11.80;99.90;;;;;;5122867;27;19930;-85
2021/10/29 00:38:13;;;;;;;;;;;11.70;99.90;;;;;;5127694;27;20390;-85
2021/10/29 00:40:40;;;;;;;;;;;11.80;99.90;;;;;;5124385;27;19973;-86
2021/10/29 00:43:07;;;;;;;;;;;11.80;99.90;;;;;;5129610;27;20386;-86
2021/10/29 00:45:34;;;;;;;;;;;11.70;99.90;;;;;;5124241;27;19930;-85
2021/10/29 00:48:00;;;;;;;;;;;11.80;99.90;;;;;;5117744;27;19932;-85
2021/10/29 00:50:28;;;;;;;;;;;11.70;99.90;;;;;;5128548;27;19932;-85
2021/10/29 00:52:55;;;;;;;;;;;11.60;99.90;;;;;;5124057;27;19961;-85
2021/10/29 00:55:22;;;;;;;;;;;11.50;99.90;;;;;;5116365;27;19941;-84
2021/10/29 00:57:50;;;;;;;;;;;11.60;99.90;;;;;;5121595;27;20297;-83
2021/10/29 01:00:17;;;;;;;;;;;11.60;99.90;;;;;;5122327;27;19924;-84
2021/10/29 01:02:43;;;;;;;;;;;11.60;99.90;;;;;;5117874;27;20300;-84
2021/10/29 01:05:11;;;;;;;;;;;11.50;99.90;;;;;;5118824;27;19958;-84
2021/10/29 01:07:39;;;;;;;;;;;11.50;99.90;;;;;;5124451;27;20421;-84
2021/10/29 01:10:06;;;;;;;;;;;11.50;99.90;;;;;;5121932;27;19923;-84
2021/10/29 01:12:33;;;;;;;;;;;11.50;99.90;;;;;;5120796;27;20366;-84
2021/10/29 01:15:00;;;;;;;;;;;11.50;99.90;;;;;;5120824;27;20396;-84
2021/10/29 01:17:27;;;;;;;;;;;11.50;99.90;;;;;;5120881;27;19924;-83
2021/10/29 01:19:55;;;;;;;;;;;11.50;99.90;;;;;;5120677;27;19923;-82
2021/10/29 01:22:23;;;;;;;;;;;11.50;99.90;;;;;;5121273;27;19947;-83
2021/10/29 01:24:50;;;;;;;;;;;11.60;99.90;;;;;;5119592;27;19923;-82
2021/10/29 01:27:17;;;;;;;;;;;11.60;99.90;;;;;;5124693;27;19923;-83
2021/10/29 01:29:44;;;;;;;;;;;11.60;99.90;;;;;;5118796;27;19923;-83
2021/10/29 01:32:11;;;;;;;;;;;11.60;99.90;;;;;;5122462;27;19946;-80
2021/10/29 01:34:39;;;;;;;;;;;11.60;99.90;;;;;;5115755;27;19930;-82
2021/10/29 01:37:06;;;;;;;;;;;11.50;99.90;;;;;;5118999;27;20405;-82
2021/10/29 01:39:34;;;;;;;;;;;11.60;99.90;;;;;;5124700;27;19931;-82
2021/10/29 01:42:01;;;;;;;;;;;11.60;99.90;;;;;;5118495;27;19924;-83
2021/10/29 01:44:28;;;;;;;;;;;11.60;99.90;;;;;;5119533;27;19959;-82
2021/10/29 01:46:55;;;;;;;;;;;11.50;99.90;;;;;;5118222;27;19930;-83
2021/10/29 01:49:21;;;;;;;;;;;11.60;99.90;;;;;;5117077;27;20409;-81
2021/10/29 01:51:48;;;;;;;;;;;11.50;99.90;;;;;;5138373;27;19954;-82
2021/10/29 01:54:15;;;;;;;;;;;11.60;99.90;;;;;;5141312;27;19975;-81
2021/10/29 01:56:43;;;;;;;;;;;11.60;99.90;;;;;;5141534;27;19931;-82
2021/10/29 01:59:09;;;;;;;;;;;11.70;99.90;;;;;;5118993;27;19924;-84
2021/10/29 02:01:36;;;;;;;;;;;11.60;99.90;;;;;;5125622;27;19928;-83
2021/10/29 02:04:03;;;;;;;;;;;11.60;99.90;;;;;;5127470;27;19923;-82
2021/10/29 02:06:29;;;;;;;;;;;11.60;99.90;;;;;;5118928;27;19930;-83
2021/10/29 02:08:56;;;;;;;;;;;11.60;99.90;;;;;;5120388;27;19927;-82
2021/10/29 02:11:23;;;;;;;;;;;11.60;99.90;;;;;;5117095;27;19924;-83
2021/10/29 02:13:51;;;;;;;;;;;11.60;99.90;;;;;;5119203;27;20304;-82
2021/10/29 02:16:17;;;;;;;;;;;11.60;99.90;;;;;;5119607;27;19924;-83
2021/10/29 02:18:44;;;;;;;;;;;11.70;99.90;;;;;;5118561;27;19924;-82
2021/10/29 02:21:11;;;;;;;;;;;11.70;99.90;;;;;;5117202;27;19924;-82
2021/10/29 02:23:37;;;;;;;;;;;11.60;99.90;;;;;;5117538;27;19937;-82
2021/10/29 02:26:04;;;;;;;;;;;11.60;99.90;;;;;;5126436;27;19983;-82
2021/10/29 02:28:31;;;;;;;;;;;11.60;99.90;;;;;;5134786;27;20414;-82
2021/10/29 02:30:59;;;;;;;;;;;11.60;99.90;;;;;;5124402;27;19930;-83
2021/10/29 02:33:26;;;;;;;;;;;11.60;99.90;;;;;;5125031;27;19923;-84
2021/10/29 02:35:52;;;;;;;;;;;11.60;99.90;;;;;;5113586;27;19930;-83
2021/10/29 02:38:19;;;;;;;;;;;11.60;99.90;;;;;;5114483;27;20032;-84
2021/10/29 02:40:45;;;;;;;;;;;11.60;99.90;;;;;;5125861;27;19931;-84
2021/10/29 02:43:12;;;;;;;;;;;11.60;99.90;;;;;;5115193;27;19923;-83
2021/10/29 02:45:39;;;;;;;;;;;11.60;99.90;;;;;;5121307;27;19924;-84
2021/10/29 02:48:07;;;;;;;;;;;11.60;99.90;;;;;;5124775;27;19929;-84
2021/10/29 02:50:34;;;;;;;;;;;11.70;99.90;;;;;;5116663;27;19928;-84
2021/10/29 02:53:03;;;;;;;;;;;11.70;99.90;;;;;;5117437;27;19923;-83
2021/10/29 02:55:30;;;;;;;;;;;11.70;99.90;;;;;;5117385;27;20468;-83
2021/10/29 02:57:56;;;;;;;;;;;11.70;99.90;;;;;;5123439;27;19927;-83
2021/10/29 03:00:23;;;;;;;;;;;11.70;99.90;;;;;;5121487;27;19930;-83
2021/10/29 03:02:50;;;;;;;;;;;11.80;99.90;;;;;;5116452;27;20009;-83
2021/10/29 03:05:18;;;;;;;;;;;11.80;99.90;;;;;;5126595;27;19931;-82
2021/10/29 03:07:45;;;;;;;;;;;11.80;99.90;;;;;;5118633;27;19923;-84
2021/10/29 03:10:12;;;;;;;;;;;11.80;99.90;;;;;;5120004;27;19927;-84
2021/10/29 03:12:39;;;;;;;;;;;11.80;99.90;;;;;;5119706;27;19924;-80
2021/10/29 03:15:07;;;;;;;;;;;11.80;99.90;;;;;;5116787;27;20398;-84
2021/10/29 03:17:34;;;;;;;;;;;11.70;99.90;;;;;;5116357;28;19933;-80
2021/10/29 03:20:00;;;;;;;;;;;11.70;99.90;;;;;;5121007;27;20390;-83
2021/10/29 03:22:29;;;;;;;;;;;11.70;99.90;;;;;;5121125;27;19929;-83
2021/10/29 03:24:56;;;;;;;;;;;11.60;99.90;;;;;;5119311;28;19939;-82
2021/10/29 03:27:22;;;;;;;;;;;11.70;99.90;;;;;;5114478;28;19983;-83
2021/10/29 03:29:49;;;;;;;;;;;11.70;99.90;;;;;;5119708;28;20018;-84
2021/10/29 03:32:18;;;;;;;;;;;11.80;99.90;;;;;;5119737;28;19956;-82
2021/10/29 03:34:45;;;;;;;;;;;11.80;99.90;;;;;;5113868;28;19979;-82
2021/10/29 03:37:22;;;;;;;;;;;11.70;99.90;;;;;;5116752;27;19923;-82
2021/10/29 03:39:54;;;;;;;;;;;11.80;99.90;;;;;;5122864;27;19927;-82
2021/10/29 03:42:25;;;;;;;;;;;11.80;99.90;;;;;;5118770;27;19923;-83
2021/10/29 03:44:57;;;;;;;;;;;11.70;99.90;;;;;;5125323;27;20022;-83
2021/10/29 03:47:27;;;;;;;;;;;11.70;99.90;;;;;;5124892;27;20394;-82
2021/10/29 03:50:01;;;;;;;;;;;11.70;99.90;;;;;;5119857;27;20386;-82
2021/10/29 03:52:47;;;;;;;;;;;11.60;99.90;;;;;;5124659;27;19927;-83
2021/10/29 03:55:15;;;;;;;;;;;11.60;99.90;;;;;;5124482;27;20409;-82
2021/10/29 03:57:42;;;;;;;;;;;11.60;99.90;;;;;;5125553;27;19924;-83
2021/10/29 04:00:10;;;;;;;;;;;11.60;99.90;;;;;;5123582;27;20014;-83
2021/10/29 04:02:36;;;;;;;;;;;11.60;99.90;;;;;;5117636;27;19935;-84
2021/10/29 04:05:03;;;;;;;;;;;11.60;99.90;;;;;;5121597;27;20014;-82
2021/10/29 04:07:29;;;;;;;;;;;11.60;99.90;;;;;;5123184;27;19934;-82
2021/10/29 04:09:56;;;;;;;;;;;11.70;99.90;;;;;;5121098;27;20002;-81
2021/10/29 04:12:25;;;;;;;;;;;11.70;99.90;;;;;;5126649;27;19923;-81
2021/10/29 04:14:52;;;;;;;;;;;11.60;99.90;;;;;;5122508;27;19931;-82
2021/10/29 04:17:19;;;;;;;;;;;11.60;99.90;;;;;;5118899;27;20010;-82
2021/10/29 04:19:46;;;;;;;;;;;11.60;99.90;;;;;;5130676;27;20010;-82
2021/10/29 04:22:12;;;;;;;;;;;11.60;99.90;;;;;;5122245;27;19956;-82
2021/10/29 04:24:39;;;;;;;;;;;11.60;99.90;;;;;;5124984;27;19923;-82
2021/10/29 04:27:06;;;;;;;;;;;11.60;99.90;;;;;;5123214;27;19927;-82
2021/10/29 04:29:38;;;;;;;;;;;11.60;99.90;;;;;;5126511;27;19924;-82
2021/10/29 04:32:05;;;;;;;;;;;11.60;99.90;;;;;;5121544;27;19928;-82
2021/10/29 04:34:31;;;;;;;;;;;11.60;99.90;;;;;;5129340;27;19927;-82
2021/10/29 04:36:59;;;;;;;;;;;11.70;99.90;;;;;;5116029;27;20027;-81
2021/10/29 04:39:26;;;;;;;;;;;11.70;99.90;;;;;;5123361;27;19946;-82
2021/10/29 04:41:53;;;;;;;;;;;11.70;99.90;;;;;;5117953;27;20383;-82
2021/10/29 04:44:19;;;;;;;;;;;11.60;99.90;;;;;;5129280;27;20577;-82
2021/10/29 04:46:48;;;;;;;;;;;11.60;99.90;;;;;;5117672;27;19930;-80
2021/10/29 04:49:14;;;;;;;;;;;11.50;99.90;;;;;;5118351;27;19947;-82
2021/10/29 04:51:41;;;;;;;;;;;11.50;99.90;;;;;;5118999;27;19931;-80
2021/10/29 04:54:08;;;;;;;;;;;11.50;99.90;;;;;;5124778;27;20397;-84
2021/10/29 04:56:35;;;;;;;;;;;11.50;99.90;;;;;;5128611;27;20306;-82
2021/10/29 04:59:01;;;;;;;;;;;11.60;99.90;;;;;;5125213;27;19923;-84
2021/10/29 05:01:28;;;;;;;;;;;11.60;99.90;;;;;;5126426;27;19974;-83
2021/10/29 05:03:56;;;;;;;;;;;11.50;99.90;;;;;;5124453;27;19930;-85
2021/10/29 05:06:23;;;;;;;;;;;11.50;99.90;;;;;;5117554;27;19946;-83
2021/10/29 05:08:49;;;;;;;;;;;11.60;99.90;;;;;;5115027;27;20397;-85
2021/10/29 05:11:16;;;;;;;;;;;11.50;99.90;;;;;;5120279;27;19928;-84
2021/10/29 05:13:43;;;;;;;;;;;11.50;99.90;;;;;;5121443;27;19923;-83
2021/10/29 05:16:09;;;;;;;;;;;11.40;99.90;;;;;;5118492;27;19923;-82
2021/10/29 05:18:36;;;;;;;;;;;11.40;99.90;;;;;;5115628;27;19923;-82
2021/10/29 05:21:04;;;;;;;;;;;11.50;99.90;;;;;;5125119;27;19932;-76
2021/10/29 05:23:30;;;;;;;;;;;11.40;99.90;;;;;;5118586;27;19923;-76
2021/10/29 05:25:57;;;;;;;;;;;11.40;99.90;;;;;;5109788;27;19930;-77
2021/10/29 05:28:24;;;;;;;;;;;11.40;99.90;;;;;;5112916;27;19931;-76
2021/10/29 05:30:50;;;;;;;;;;;11.40;99.90;;;;;;5113526;27;19923;-76
2021/10/29 05:33:17;;;;;;;;;;;11.40;99.90;;;;;;5117917;27;19923;-76
2021/10/29 05:35:44;;;;;;;;;;;11.30;99.90;;;;;;5115199;27;19924;-77
2021/10/29 05:38:12;;;;;;;;;;;11.40;99.90;;;;;;5119224;27;23032;-77
2021/10/29 05:40:38;;;;;;;;;;;11.40;99.90;;;;;;5121517;27;19938;-77
2021/10/29 05:43:05;;;;;;;;;;;11.40;99.90;;;;;;5112684;27;19930;-77
2021/10/29 05:45:33;;;;;;;;;;;11.40;99.90;;;;;;5114448;27;19958;-76
2021/10/29 05:48:03;;;;;;;;;;;11.30;99.90;;;;;;5120680;27;19976;-76
2021/10/29 05:50:30;;;;;;;;;;;11.30;99.90;;;;;;5121119;27;20329;-77
2021/10/29 05:53:00;;;;;;;;;;;11.30;99.90;;;;;;5113280;27;19967;-77
2021/10/29 05:55:28;;;;;;;;;;;11.30;99.90;;;;;;5110836;27;20014;-77
2021/10/29 05:57:55;;;;;;;;;;;11.30;99.90;;;;;;5111997;27;19924;-77
2021/10/29 06:00:23;;;;;;;;;;;11.30;99.90;;;;;;5108105;27;19984;-77
2021/10/29 06:02:49;;;;;;;;;;;11.20;99.90;;;;;;5116428;27;20035;-77
2021/10/29 06:05:17;;;;;;;;;;;11.30;99.90;;;;;;5118248;27;20042;-77
2021/10/29 06:07:44;;;;;;;;;;;11.40;99.90;;;;;;5116438;27;19950;-78
2021/10/29 06:10:14;;;;;;;;;;;11.40;99.90;;;;;;5115632;27;19932;-77
2021/10/29 06:12:43;;;;;;;;;;;11.40;99.90;;;;;;5104122;27;19923;-78
2021/10/29 06:15:10;;;;;;;;;;;11.50;99.90;;;;;;5119952;27;20306;-79
2021/10/29 06:17:37;;;;;;;;;;;11.50;99.90;;;;;;5116643;27;19935;-80
2021/10/29 06:20:04;;;;;;;;;;;11.50;99.90;;;;;;5112249;27;19928;-80
2021/10/29 06:22:34;;;;;;;;;;;11.50;99.90;;;;;;5118593;27;19923;-79
2021/10/29 06:25:08;;;;;;;;;;;11.40;99.90;;;;;;5114235;27;19931;-77
2021/10/29 06:30:21;;;;;;;;;;;11.40;99.90;;;;;;5114696;27;20309;-79
2021/10/29 06:32:47;;;;;;;;;;;11.40;99.90;;;;;;5111824;27;20327;-75
2021/10/29 06:35:14;;;;;;;;;;;11.40;99.90;;;;;;5120431;27;19928;-75
2021/10/29 06:37:42;;;;;;;;;;;11.40;99.90;;;;;;5117618;27;19943;-75
2021/10/29 06:40:11;;;;;;;;;;;11.40;99.90;;;;;;5114941;27;20029;-75
2021/10/29 06:42:38;;;;;;;;;;;11.40;99.90;;;;;;5118728;27;20431;-74
2021/10/29 06:45:17;;;;;;;;;;;11.30;99.90;;;;;;5116666;27;19935;-74
2021/10/29 06:47:50;;;;;;;;;;;11.40;99.90;;;;;;5110862;27;19924;-75
2021/10/29 07:01:16;;;;;;;;;;;11.30;99.90;;;;;;5075495;27;20630;-74
2021/10/29 07:12:14;;;;;;;;;;;11.30;99.90;;;;;;5117133;27;19934;-73
2021/10/29 07:42:07;;;;;;;;;;;11.80;99.90;;;;;;5111596;27;20394;-75
2021/10/29 07:44:34;;;;;;;;;;;11.90;99.90;;;;;;5110862;28;19967;-75
2021/10/29 07:47:01;;;;;;;;;;;12.00;99.90;;;;;;5110593;28;19924;-74
2021/10/29 07:49:28;;;;;;;;;;;12.10;99.90;;;;;;5113334;27;19963;-75
2021/10/29 07:51:57;;;;;;;;;;;12.20;99.90;;;;;;5113009;27;19924;-73
2021/10/29 07:54:24;;;;;;;;;;;12.20;99.90;;;;;;5118260;28;20010;-76
2021/10/29 07:56:51;;;;;;;;;;;12.40;99.90;;;;;;5108310;28;20023;-76
2021/10/29 07:59:18;;;;;;;;;;;13.20;99.90;;;;;;5116261;28;19924;-76
2021/10/29 08:01:45;;;;;;;;;;;15.00;99.90;;;;;;5112243;27;19941;-75
2021/10/29 08:04:12;;;;;;;;;;;16.80;95.10;;;;;;5112959;27;19932;-74
2021/10/29 08:06:39;;;;;;;;;;;17.50;86.90;;;;;;5118051;28;19927;-74
2021/10/29 08:09:07;;;;;;;;;;;18.00;84.00;;;;;;5118230;27;19946;-74
2021/10/29 08:11:33;;;;;;;;;;;19.00;77.50;;;;;;5113812;27;19932;-73
2021/10/29 08:14:00;;;;;;;;;;;18.70;71.40;;;;;;5115856;28;20022;-75
2021/10/29 08:16:27;;;;;;;;;;;18.80;69.80;;;;;;5112612;27;20014;-74
2021/10/29 08:18:53;;;;;;;;;;;18.60;69.40;;;;;;5111199;27;20393;-74
2021/10/29 08:21:20;;;;;;;;;;;17.70;70.70;;;;;;5110366;28;20908;-74
2021/10/29 08:23:47;;;;;;;;;;;17.50;73.10;;;;;;5115142;27;20425;-74
2021/10/29 08:26:15;;;;;;;;;;;17.80;72.20;;;;;;5117532;27;20313;-74
2021/10/29 08:28:42;;;;;;;;;;;18.20;71.30;;;;;;5114393;27;20026;-75
2021/10/29 08:31:08;;;;;;;;;;;18.40;70.70;;;;;;5116778;27;20259;-74
2021/10/29 08:33:35;;;;;;;;;;;18.80;68.80;;;;;;5117708;27;20343;-72
2021/10/29 08:36:02;;;;;;;;;;;19.00;67.50;;;;;;5120067;27;20259;-74
2021/10/29 08:38:29;;;;;;;;;;;19.30;66.10;;;;;;5116406;27;19924;-72
2021/10/29 08:40:56;;;;;;;;;;;18.80;66.10;;;;;;5122164;27;19970;-75
2021/10/29 08:43:27;;;;;;;;;;;18.40;67.10;;;;;;5121727;27;20370;-73
2021/10/29 08:45:54;;;;;;;;;;;19.00;66.60;;;;;;5118084;27;19923;-73
2021/10/29 08:48:21;;;;;;;;;;;19.60;63.80;;;;;;5116912;27;19967;-75
2021/10/29 08:50:47;;;;;;;;;;;19.20;63.50;;;;;;5119159;27;20019;-74
2021/10/29 08:53:14;;;;;;;;;;;19.40;62.90;;;;;;5117966;27;20053;-74
2021/10/29 08:55:41;;;;;;;;;;;19.20;61.20;;;;;;5117673;27;19932;-75
2021/10/29 08:58:09;;;;;;;;;;;18.50;63.60;;;;;;5112130;27;20396;-75
2021/10/29 09:00:41;;;;;;;;;;;19.10;63.30;;;;;;5115995;27;20401;-74
2021/10/29 09:03:20;;;;;;;;;;;19.70;61.30;;;;;;5118240;27;19931;-74
2021/10/29 09:05:56;;;;;;;;;;;19.00;60.50;;;;;;5111638;27;19924;-73
2021/10/29 09:08:29;;;;;;;;;;;18.80;62.70;;;;;;5111893;27;19924;-72
2021/10/29 09:11:21;;;;;;;;;;;19.40;61.30;;;;;;5116720;27;19950;-72
2021/10/29 09:33:52;;;;;;;;;;;15.70;75.60;;;;;;5069024;27;20018;-74
2021/10/29 09:36:26;;;;;;;;;;;15.70;75.50;;;;;;5119224;27;19934;-75
2021/10/29 09:38:56;;;;;;;;;;;15.60;75.30;;;;;;5117241;27;20255;-79
2021/10/29 09:41:23;;;;;;;;;;;15.70;76.10;;;;;;5115485;27;19967;-74
2021/10/29 09:43:54;;;;;;;;;;;15.80;76.30;;;;;;5113687;27;20614;-74
2021/10/29 09:46:29;;;;;;;;;;;15.90;77.10;;;;;;5111672;27;19934;-73
2021/10/29 09:49:04;;;;;;;;;;;15.90;76.50;;;;;;5113932;27;19931;-73
2021/10/29 09:51:36;;;;;;;;;;;15.90;75.80;;;;;;5116158;27;20392;-72
2021/10/29 09:54:12;;;;;;;;;;;16.00;76.10;;;;;;5113952;27;19935;-73
2021/10/29 09:56:47;;;;;;;;;;;16.10;76.20;;;;;;5115122;27;20360;-73
2021/10/29 09:59:13;;;;;;;;;;;16.10;75.50;;;;;;5112453;27;19950;-77
2021/10/29 10:01:40;;;;;;;;;;;16.10;76.10;;;;;;5119055;27;19924;-74
2021/10/29 10:04:09;;;;;;;;;;;16.10;76.30;;;;;;5135253;27;20010;-73
2021/10/29 10:06:40;;;;;;;;;;;16.20;76.20;;;;;;5115599;27;19967;-72
2021/10/29 10:09:08;;;;;;;;;;;16.20;76.10;;;;;;5121219;27;19930;-74
2021/10/29 10:11:35;;;;;;;;;;;16.30;76.40;;;;;;5113801;27;19931;-74
2021/10/29 10:14:04;;;;;;;;;;;16.40;76.60;;;;;;5113577;27;19928;-73
2021/10/29 10:16:33;;;;;;;;;;;16.40;75.90;;;;;;5114702;27;20036;-73
2021/10/29 10:19:00;;;;;;;;;;;16.40;75.60;;;;;;5117446;27;20036;-72
2021/10/29 10:21:33;;;;;;;;;;;16.50;75.70;;;;;;5110002;27;19924;-74
2021/10/29 10:24:01;;;;;;;;;;;16.50;75.70;;;;;;5112129;27;19929;-73
2021/10/29 10:26:38;;;;;;;;;;;16.60;75.50;;;;;;5108793;27;19927;-73
2021/10/29 10:29:19;;;;;;;;;;;16.60;75.80;;;;;;5116684;27;19930;-72
2021/10/29 10:40:57;;;;;;;;;;;16.80;74.90;;;;;;5055554;28;19978;-73
2021/10/29 10:46:19;;;;;;;;;;;16.90;74.30;;;;;;5082095;28;19932;-71
2021/10/29 10:48:49;;;;;;;;;;;17.00;75.20;;;;;;5108772;27;19938;-73
2021/10/29 10:54:28;;;;;;;;;;;17.10;73.40;;;;;;5097466;27;19963;-72
2021/10/29 10:57:04;;;;;;;;;;;17.10;74.30;;;;;;5117810;27;20411;-72
2021/10/29 10:59:42;;;;;;;;;;;17.20;74.00;;;;;;5114519;27;19928;-73
2021/10/29 11:05:10;;;;;;;;;;;17.30;72.90;;;;;;5091613;27;19931;-72
2021/10/29 11:10:32;;;;;;;;;;;17.30;74.60;;;;;;5108877;27;19935;-72
2021/10/29 11:13:06;;;;;;;;;;;17.30;74.20;;;;;;5109330;27;19927;-73
2021/10/29 11:15:33;;;;;;;;;;;17.30;73.90;;;;;;5121513;27;19941;-73
2021/10/29 11:18:01;;;;;;;;;;;17.30;73.80;;;;;;5113921;27;19958;-71
2021/10/29 11:20:51;;;;;;;;;;;17.40;73.30;;;;;;5114472;27;19928;-72
2021/10/29 11:23:19;;;;;;;;;;;17.50;73.60;;;;;;5105463;28;19923;-73
2021/10/29 11:25:56;;;;;;;;;;;17.50;73.10;;;;;;5113045;28;19927;-72
2021/10/29 11:28:26;;;;;;;;;;;17.50;73.20;;;;;;5113498;27;20442;-74
2021/10/29 11:30:53;;;;;;;;;;;17.50;73.40;;;;;;5115191;27;20035;-74
2021/10/29 11:33:20;;;;;;;;;;;17.60;73.80;;;;;;5105872;28;19954;-73
2021/10/29 11:35:58;;;;;;;;;;;17.60;74.00;;;;;;5117025;27;19955;-72
2021/10/29 11:38:25;;;;;;;;;;;17.70;73.80;;;;;;5108353;28;19923;-72
2021/10/29 11:40:52;;;;;;;;;;;17.70;73.40;;;;;;5112544;27;19966;-72
2021/10/29 11:43:25;;;;;;;;;;;17.70;73.90;;;;;;5109056;28;19924;-71
2021/10/29 11:45:51;;;;;;;;;;;17.80;73.80;;;;;;5113683;28;19931;-73
2021/10/29 11:48:18;;;;;;;;;;;17.80;74.40;;;;;;5110733;28;19930;-73
2021/10/29 11:50:45;;;;;;;;;;;18.00;74.20;;;;;;5116835;27;20007;-73
2021/10/29 11:53:13;;;;;;;;;;;17.80;73.90;;;;;;5114921;28;19934;-73
2021/10/29 11:55:44;;;;;;;;;;;17.90;74.20;;;;;;5109094;27;20026;-73
2021/10/29 11:58:16;;;;;;;;;;;17.90;73.50;;;;;;5112087;27;19958;-72
2021/10/29 12:00:52;;;;;;;;;;;17.90;74.70;;;;;;5119822;27;19923;-72
2021/10/29 12:07:13;;;;;;;;;;;17.90;75.10;;;;;;5083621;27;20364;-72
2021/10/29 12:09:21;;;;;;;;;;;18.00;74.20;;;;;;5118511;27;20682;-73
2021/10/29 12:11:53;;;;;;;;;;;18.00;74.80;;;;;;5116072;27;20317;-71
2021/10/29 12:14:20;;;;;;;;;;;17.90;74.90;;;;;;5117267;27;20688;-71
2021/10/29 12:16:49;;;;;;;;;;;17.80;75.40;;;;;;5110074;27;19930;-72
2021/10/29 12:19:22;;;;;;;;;;;17.70;76.10;;;;;;5110856;27;19931;-72
2021/10/29 12:21:56;;;;;;;;;;;17.50;76.00;;;;;;5110095;27;20026;-73
2021/10/29 12:24:23;;;;;;;;;;;17.40;76.80;;;;;;5112674;27;19961;-73
2021/10/29 12:26:54;;;;;;;;;;;17.30;77.00;;;;;;5115656;27;19927;-73
2021/10/29 12:29:22;;;;;;;;;;;17.10;77.80;;;;;;5120059;27;19935;-72
2021/10/29 12:32:27;;;;;;;;;;;17.00;78.10;;;;;;5116455;27;19931;-73
2021/10/29 12:52:17;;;;;;;;;;;17.30;79.40;;;;;;5089830;27;20273;-71
2021/10/29 13:03:01;;;;;;;;;;;17.40;80.00;;;;;;5117151;27;19969;-71
2021/10/29 13:05:29;;;;;;;;;;;17.40;80.30;;;;;;5112952;27;19931;-71
2021/10/29 13:07:56;;;;;;;;;;;17.40;80.30;;;;;;5111086;27;19924;-71
2021/10/29 13:10:24;;;;;;;;;;;17.40;80.30;;;;;;5112513;27;20324;-72
2021/10/29 13:12:57;;;;;;;;;;;17.40;80.20;;;;;;5115393;27;20028;-72
2021/10/29 13:15:27;;;;;;;;;;;17.20;81.20;;;;;;5112790;27;19923;-72
2021/10/29 13:17:57;;;;;;;;;;;17.20;81.40;;;;;;5117888;27;19928;-72
2021/10/29 13:20:58;;;;;;;;;;;17.10;81.20;;;;;;5109612;27;19927;-73
2021/10/29 13:24:02;;;;;;;;;;;17.00;81.80;;;;;;5117344;27;20289;-75
2021/10/29 13:26:46;;;;;;;;;;;17.00;82.30;;;;;;5112101;27;19931;-72
2021/10/29 13:34:14;;;;;;;;;;;16.90;82.90;;;;;;5114609;27;19968;-72
2021/10/29 13:38:02;;;;;;;;;;;17.00;83.40;;;;;;5101570;27;20055;-76
2021/10/29 13:51:33;;;;;;;;;;;16.80;84.90;;;;;;5115114;27;19977;-75
2021/10/29 13:54:04;;;;;;;;;;;16.80;85.00;;;;;;5112720;27;20023;-75
2021/10/29 13:56:46;;;;;;;;;;;16.80;85.50;;;;;;5115719;27;19963;-75
2021/10/29 14:02:22;;;;;;;;;;;16.80;86.00;;;;;;5112247;27;19920;-76
2021/10/29 14:29:40;;;;;;;;;;;16.20;91.00;;;;;;5112136;27;19938;-73
2021/10/29 14:32:14;;;;;;;;;;;16.20;91.80;;;;;;5109096;27;21458;-73
2021/10/29 14:34:43;;;;;;;;;;;16.10;93.30;;;;;;5115782;27;20286;-72
2021/10/29 14:37:15;;;;;;;;;;;15.90;94.70;;;;;;5111522;27;19924;-72
2021/10/29 14:39:49;;;;;;;;;;;15.80;97.80;;;;;;5108584;27;20412;-71
2021/10/29 14:42:23;;;;;;;;;;;15.70;99.90;;;;;;5115658;27;19923;-71
2021/10/29 14:44:58;;;;;;;;;;;15.50;99.90;;;;;;5109526;27;19924;-71
2021/10/29 14:47:33;;;;;;;;;;;15.30;99.90;;;;;;5112699;27;20401;-72
2021/10/29 14:50:17;;;;;;;;;;;15.10;99.90;;;;;;5108734;27;23924;-72
2021/10/29 15:01:22;;;;;;;;;;;14.50;99.90;;;;;;5106475;27;19977;-72
2021/10/29 15:15:14;;;;;;;;;;;14.10;99.90;;;;;;5114190;27;19930;-70
2021/10/29 15:17:59;;;;;;;;;;;14.00;99.90;;;;;;5108253;27;19939;-72
2021/10/29 15:26:16;;;;;;;;;;;13.90;99.90;;;;;;5115740;28;19988;-72
2021/10/29 15:28:49;;;;;;;;;;;13.90;99.90;;;;;;5114003;28;19931;-73
2021/10/29 15:31:32;;;;;;;;;;;13.80;99.90;;;;;;5112345;28;19928;-74
2021/10/29 15:42:27;;;;;;;;;;;13.90;99.90;;;;;;5116387;27;20459;-74
2021/10/29 15:45:05;;;;;;;;;;;14.00;99.90;;;;;;5116878;27;19968;-73
2021/10/29 15:47:42;;;;;;;;;;;13.90;99.90;;;;;;5120704;27;19963;-72
2021/10/29 15:50:13;;;;;;;;;;;13.90;99.90;;;;;;5119442;27;19924;-74
2021/10/29 15:52:40;;;;;;;;;;;13.90;99.90;;;;;;5122326;27;21663;-74
2021/10/29 15:55:10;;;;;;;;;;;13.90;99.90;;;;;;5112939;27;20402;-77
2021/10/29 15:57:48;;;;;;;;;;;13.90;99.90;;;;;;5114834;27;20015;-77
2021/10/29 16:00:27;;;;;;;;;;;13.80;99.90;;;;;;5110462;27;20312;-74
2021/10/29 16:02:59;;;;;;;;;;;13.80;99.90;;;;;;5115335;27;19928;-79
2021/10/29 16:19:11;;;;;;;;;;;13.80;99.90;;;;;;5111780;27;19977;-74
2021/10/29 16:21:39;;;;;;;;;;;13.80;99.90;;;;;;5122381;27;19939;-74
2021/10/29 16:24:05;;;;;;;;;;;13.80;99.90;;;;;;5112681;27;19924;-75
2021/10/29 16:26:34;;;;;;;;;;;13.80;99.90;;;;;;5112180;27;19923;-74
2021/10/29 16:29:00;;;;;;;;;;;13.90;99.90;;;;;;5113853;27;20460;-74
2021/10/29 16:31:27;;;;;;;;;;;13.90;99.90;;;;;;5112588;27;19932;-72
2021/10/29 16:33:54;;;;;;;;;;;13.90;99.90;;;;;;5114814;27;20402;-74
2021/10/29 16:36:20;;;;;;;;;;;13.90;99.90;;;;;;5115192;27;20014;-75
2021/10/29 16:38:49;;;;;;;;;;;13.90;99.90;;;;;;5121163;27;19930;-75
2021/10/29 16:41:15;;;;;;;;;;;13.90;99.90;;;;;;5114201;27;20016;-75
2021/10/29 16:43:42;;;;;;;;;;;13.90;99.90;;;;;;5115942;27;19999;-73
2021/10/29 16:46:09;;;;;;;;;;;13.80;99.90;;;;;;5112367;27;19929;-72
2021/10/29 16:48:35;;;;;;;;;;;13.80;99.90;;;;;;5117825;27;19934;-73
2021/10/29 16:51:02;;;;;;;;;;;13.80;99.90;;;;;;5119460;27;20149;-72
2021/10/29 16:53:28;;;;;;;;;;;13.80;99.90;;;;;;5119597;27;20294;-73
2021/10/29 16:55:56;;;;;;;;;;;13.80;99.90;;;;;;5114802;27;19930;-73
2021/10/29 16:58:23;;;;;;;;;;;13.70;99.90;;;;;;5122485;27;19946;-74
2021/10/29 17:00:50;;;;;;;;;;;13.60;99.90;;;;;;5116225;27;19938;-74
2021/10/29 17:03:16;;;;;;;;;;;13.60;99.90;;;;;;5113840;27;19934;-75
2021/10/29 17:05:43;;;;;;;;;;;13.60;99.90;;;;;;5115117;27;20014;-73
2021/10/29 17:08:10;;;;;;;;;;;13.60;99.90;;;;;;5115664;27;19927;-74
2021/10/29 17:10:36;;;;;;;;;;;13.60;99.90;;;;;;5113314;27;19969;-74
2021/10/29 17:13:05;;;;;;;;;;;13.60;99.90;;;;;;5113703;27;20022;-75
2021/10/29 17:15:33;;;;;;;;;;;13.60;99.90;;;;;;5118084;27;19968;-75
2021/10/29 17:17:59;;;;;;;;;;;13.60;99.90;;;;;;5115204;27;20292;-75
2021/10/29 17:20:26;;;;;;;;;;;13.60;99.90;;;;;;5113000;27;19931;-75
2021/10/29 17:22:53;;;;;;;;;;;13.60;99.90;;;;;;5116039;27;20124;-75
2021/10/29 17:25:19;;;;;;;;;;;13.60;99.90;;;;;;5126169;27;20083;-74
2021/10/29 17:27:46;;;;;;;;;;;13.60;99.90;;;;;;5110804;27;20010;-74
2021/10/29 17:30:15;;;;;;;;;;;13.60;99.90;;;;;;5118378;27;20585;-75
2021/10/29 17:32:42;;;;;;;;;;;13.70;99.90;;;;;;5115928;27;19935;-75
2021/10/29 17:35:09;;;;;;;;;;;13.70;99.90;;;;;;5117425;27;20327;-75
2021/10/29 17:37:36;;;;;;;;;;;13.70;99.90;;;;;;5115367;27;19928;-75
2021/10/29 17:40:04;;;;;;;;;;;13.70;99.90;;;;;;5126379;27;19980;-74
2021/10/29 17:42:31;;;;;;;;;;;13.70;99.90;;;;;;5116475;27;19923;-75
2021/10/29 17:44:57;;;;;;;;;;;13.80;99.90;;;;;;5112402;27;19924;-75
2021/10/29 17:47:26;;;;;;;;;;;13.70;99.90;;;;;;5117240;27;19939;-75
2021/10/29 17:49:53;;;;;;;;;;;13.70;99.90;;;;;;5112174;27;19967;-76
2021/10/29 17:52:20;;;;;;;;;;;13.70;99.90;;;;;;5112004;27;19923;-75
2021/10/29 17:54:52;;;;;;;;;;;13.70;99.90;;;;;;5116824;27;19945;-73
2021/10/29 17:57:19;;;;;;;;;;;13.70;99.90;;;;;;5117783;27;20457;-74
2021/10/29 17:59:46;;;;;;;;;;;13.70;99.90;;;;;;5118208;27;20344;-76